createdAt,value
2023-04-01T00:00:34.015Z,3.08
2023-04-01T00:01:34.003Z,3.07
2023-04-01T00:02:34.058Z,3.06
2023-04-01T00:03:34.248Z,3.11
2023-04-01T00:04:34.010Z,3.07
2023-04-01T00:05:34.190Z,3.07
2023-04-01T00:06:33.974Z,3.04
2023-04-01T00:07:33.980Z,2.98
2023-04-01T00:08:34.005Z,3.05
2023-04-01T00:09:34.000Z,3.04
2023-04-01T00:10:33.947Z,3.04
2023-04-01T00:11:33.965Z,2.97
2023-04-01T00:12:33.937Z,3.01
2023-04-01T00:13:33.927Z,2.98
2023-04-01T00:14:33.942Z,2.97
2023-04-01T00:15:34.082Z,2.98
2023-04-01T00:16:33.938Z,2.90
2023-04-01T00:17:33.902Z,2.96
2023-04-01T00:18:33.885Z,2.91
2023-04-01T00:19:33.934Z,2.90
2023-04-01T00:20:33.887Z,2.93
2023-04-01T00:21:33.855Z,2.94
2023-04-01T00:22:33.888Z,2.94
2023-04-01T00:23:33.884Z,2.90
2023-04-01T00:24:33.857Z,2.88
2023-04-01T00:25:34.179Z,2.89
2023-04-01T00:26:33.857Z,2.90
2023-04-01T00:27:33.846Z,2.88
2023-04-01T00:28:33.849Z,2.92
2023-04-01T00:29:33.854Z,2.92
2023-04-01T00:30:33.843Z,2.85
2023-04-01T00:31:33.862Z,2.87
2023-04-01T00:32:33.853Z,2.87
2023-04-01T00:33:33.828Z,2.83
2023-04-01T00:34:33.826Z,2.82
2023-04-01T00:35:34.070Z,2.81
2023-04-01T00:36:33.819Z,2.82
2023-04-01T00:37:33.763Z,2.83
2023-04-01T00:38:33.793Z,2.82
2023-04-01T00:39:33.736Z,2.77
2023-04-01T00:40:33.774Z,2.82
2023-04-01T00:41:33.787Z,2.78
2023-04-01T00:42:33.758Z,2.80
2023-04-01T00:43:33.741Z,2.77
2023-04-01T00:44:33.710Z,2.77
2023-04-01T00:45:33.828Z,2.78
2023-04-01T00:46:33.703Z,2.72
2023-04-01T00:47:33.711Z,2.76
2023-04-01T00:48:33.675Z,2.73
2023-04-01T00:49:33.707Z,2.75
2023-04-01T00:50:33.698Z,2.70
2023-04-01T00:51:33.661Z,2.72
2023-04-01T00:52:33.645Z,2.72
2023-04-01T00:53:33.633Z,2.69
2023-04-01T00:54:33.631Z,2.64
2023-04-01T00:55:33.934Z,2.70
2023-04-01T00:56:33.672Z,2.69
2023-04-01T00:57:33.705Z,2.68
2023-04-01T00:58:33.641Z,2.66
2023-04-01T00:59:33.692Z,2.66
2023-04-01T01:00:33.668Z,2.68
2023-04-01T01:01:33.641Z,2.65
2023-04-01T01:02:33.673Z,2.63
2023-04-01T01:03:33.621Z,2.62
2023-04-01T01:04:33.662Z,2.68
2023-04-01T01:05:34.672Z,2.64
2023-04-01T01:06:34.659Z,2.65
2023-04-01T01:07:33.640Z,2.65
2023-04-01T01:08:33.605Z,2.64
2023-04-01T01:09:33.618Z,2.62
2023-04-01T01:10:33.582Z,2.63
2023-04-01T01:11:36.963Z,2.64
2023-04-01T01:12:34.560Z,2.65
2023-04-01T01:13:33.530Z,2.65
2023-04-01T01:14:33.515Z,2.63
2023-04-01T01:15:33.758Z,2.63
2023-04-01T01:16:33.552Z,2.62
2023-04-01T01:17:33.557Z,2.59
2023-04-01T01:18:33.455Z,2.59
2023-04-01T01:19:33.449Z,2.55
2023-04-01T01:20:33.434Z,2.59
2023-04-01T01:21:33.409Z,2.54
2023-04-01T01:22:33.458Z,2.55
2023-04-01T01:23:33.433Z,2.52
2023-04-01T01:24:33.420Z,2.54
2023-04-01T01:25:33.733Z,2.50
2023-04-01T01:26:33.372Z,2.51
2023-04-01T01:27:33.357Z,2.53
2023-04-01T01:28:33.366Z,2.51
2023-04-01T01:29:33.355Z,2.50
2023-04-01T01:30:33.333Z,2.47
2023-04-01T01:31:33.305Z,2.51
2023-04-01T01:32:33.324Z,2.50
2023-04-01T01:33:34.192Z,2.47
2023-04-01T01:34:33.279Z,2.47
2023-04-01T01:35:33.448Z,2.46
2023-04-01T01:36:33.257Z,2.48
2023-04-01T01:37:33.242Z,2.46
2023-04-01T01:38:33.233Z,2.43
2023-04-01T01:39:33.210Z,2.44
2023-04-01T01:40:33.211Z,2.46
2023-04-01T01:41:33.171Z,2.43
2023-04-01T01:42:33.161Z,2.42
2023-04-01T01:43:33.148Z,2.42
2023-04-01T01:44:33.187Z,2.42
2023-04-01T01:45:33.391Z,2.41
2023-04-01T01:46:33.233Z,2.41
2023-04-01T01:47:33.194Z,2.38
2023-04-01T01:48:33.160Z,2.37
2023-04-01T01:49:33.163Z,2.38
2023-04-01T01:50:33.124Z,2.37
2023-04-01T01:51:33.150Z,2.38
2023-04-01T01:52:33.151Z,2.38
2023-04-01T01:53:33.148Z,2.37
2023-04-01T01:54:33.168Z,2.34
2023-04-01T01:55:33.455Z,2.32
2023-04-01T01:56:33.136Z,2.36
2023-04-01T01:57:33.184Z,2.34
2023-04-01T01:58:33.179Z,2.34
2023-04-01T01:59:33.147Z,2.33
2023-04-01T02:00:33.136Z,2.31
2023-04-01T02:01:33.159Z,2.30
2023-04-01T02:02:33.170Z,2.31
2023-04-01T02:03:33.172Z,2.27
2023-04-01T02:04:33.222Z,2.30
2023-04-01T02:05:33.253Z,2.31
2023-04-01T02:06:33.134Z,2.29
2023-04-01T02:07:33.110Z,2.28
2023-04-01T02:08:33.130Z,2.27
2023-04-01T02:09:33.131Z,2.25
2023-04-01T02:10:33.108Z,2.27
2023-04-01T02:11:33.110Z,2.25
2023-04-01T02:12:33.109Z,2.24
2023-04-01T02:13:33.125Z,2.24
2023-04-01T02:14:33.187Z,2.25
2023-04-01T02:15:33.241Z,2.26
2023-04-01T02:16:33.188Z,2.24
2023-04-01T02:17:33.131Z,2.23
2023-04-01T02:18:33.159Z,2.21
2023-04-01T02:19:33.095Z,2.23
2023-04-01T02:20:33.102Z,2.21
2023-04-01T02:21:33.079Z,2.22
2023-04-01T02:22:33.095Z,2.20
2023-04-01T02:23:33.087Z,2.18
2023-04-01T02:24:33.111Z,2.17
2023-04-01T02:25:33.248Z,2.18
2023-04-01T02:26:33.113Z,2.17
2023-04-01T02:27:33.113Z,2.20
2023-04-01T02:28:33.124Z,2.18
2023-04-01T02:29:33.107Z,2.19
2023-04-01T02:30:33.083Z,2.17
2023-04-01T02:31:33.131Z,2.18
2023-04-01T02:32:33.202Z,2.14
2023-04-01T02:33:33.108Z,2.13
2023-04-01T02:34:33.102Z,2.15
2023-04-01T02:35:33.299Z,2.15
2023-04-01T02:36:33.081Z,2.15
2023-04-01T02:37:34.331Z,2.15
2023-04-01T02:38:33.063Z,2.18
2023-04-01T02:39:33.043Z,2.16
2023-04-01T02:40:33.022Z,2.16
2023-04-01T02:41:33.000Z,2.12
2023-04-01T02:42:32.974Z,2.13
2023-04-01T02:43:32.984Z,2.13
2023-04-01T02:44:32.996Z,2.11
2023-04-01T02:45:33.163Z,2.11
2023-04-01T02:46:32.938Z,2.09
2023-04-01T02:47:32.975Z,2.09
2023-04-01T02:48:32.921Z,2.09
2023-04-01T02:49:32.945Z,2.08
2023-04-01T02:50:32.925Z,2.08
2023-04-01T02:51:33.147Z,2.08
2023-04-01T02:52:32.866Z,2.08
2023-04-01T02:53:32.890Z,2.06
2023-04-01T02:54:32.845Z,2.06
2023-04-01T02:55:32.993Z,2.05
2023-04-01T02:56:32.791Z,2.06
2023-04-01T02:57:32.790Z,2.03
2023-04-01T02:58:32.739Z,2.03
2023-04-01T02:59:32.738Z,2.04
2023-04-01T03:00:32.705Z,2.03
2023-04-01T03:01:32.743Z,2.03
2023-04-01T03:02:32.773Z,2.02
2023-04-01T03:03:32.698Z,2.03
2023-04-01T03:04:32.655Z,2.02
2023-04-01T03:05:33.025Z,2.02
2023-04-01T03:06:32.610Z,1.99
2023-04-01T03:07:32.591Z,1.98
2023-04-01T03:08:32.566Z,1.99
2023-04-01T03:09:32.596Z,1.98
2023-04-01T03:10:32.531Z,2.00
2023-04-01T03:11:32.528Z,1.99
2023-04-01T03:12:32.521Z,1.98
2023-04-01T03:13:32.513Z,1.99
2023-04-01T03:14:32.493Z,1.96
2023-04-01T03:15:32.780Z,1.97
2023-04-01T03:16:32.530Z,1.95
2023-04-01T03:17:32.486Z,1.95
2023-04-01T03:18:32.414Z,1.97
2023-04-01T03:19:32.408Z,1.93
2023-04-01T03:20:32.405Z,1.93
2023-04-01T03:21:32.401Z,1.97
2023-04-01T03:22:32.414Z,1.93
2023-04-01T03:23:32.400Z,1.94
2023-04-01T03:24:32.345Z,1.96
2023-04-01T03:25:32.515Z,1.92
2023-04-01T03:26:32.323Z,1.91
2023-04-01T03:27:32.336Z,1.91
2023-04-01T03:28:32.287Z,1.90
2023-04-01T03:29:32.315Z,1.91
2023-04-01T03:30:32.382Z,1.90
2023-04-01T03:31:32.372Z,1.89
2023-04-01T03:32:32.329Z,1.88
2023-04-01T03:33:32.245Z,1.88
2023-04-01T03:34:32.250Z,1.88
2023-04-01T03:35:32.411Z,1.89
2023-04-01T03:36:32.213Z,1.86
2023-04-01T03:37:32.207Z,1.87
2023-04-01T03:38:32.193Z,1.86
2023-04-01T03:39:32.156Z,1.87
2023-04-01T03:40:32.145Z,1.86
2023-04-01T03:41:32.132Z,1.87
2023-04-01T03:42:32.128Z,1.86
2023-04-01T03:43:32.113Z,1.85
2023-04-01T03:44:32.124Z,1.86
2023-04-01T03:45:32.137Z,1.81
2023-04-01T03:46:32.102Z,1.82
2023-04-01T03:47:32.063Z,1.84
2023-04-01T03:48:32.043Z,1.84
2023-04-01T03:49:32.065Z,1.83
2023-04-01T03:50:32.273Z,1.82
2023-04-01T03:51:31.990Z,1.82
2023-04-01T03:52:31.970Z,1.82
2023-04-01T03:53:31.940Z,1.82
2023-04-01T03:54:31.959Z,1.81
2023-04-01T03:55:32.195Z,1.80
2023-04-01T03:56:31.904Z,1.81
2023-04-01T03:57:31.941Z,1.80
2023-04-01T03:58:31.876Z,1.80
2023-04-01T03:59:31.894Z,1.79
2023-04-01T04:00:31.867Z,1.79
2023-04-01T04:01:31.868Z,1.78
2023-04-01T04:02:31.952Z,1.77
2023-04-01T04:03:32.019Z,1.80
2023-04-01T04:04:31.847Z,1.77
2023-04-01T04:05:32.088Z,1.77
2023-04-01T04:06:31.832Z,1.77
2023-04-01T04:07:31.801Z,1.75
2023-04-01T04:08:31.781Z,1.74
2023-04-01T04:09:31.772Z,1.75
2023-04-01T04:10:31.798Z,1.74
2023-04-01T04:11:31.790Z,1.74
2023-04-01T04:12:31.778Z,1.74
2023-04-01T04:13:31.733Z,1.74
2023-04-01T04:14:31.737Z,1.76
2023-04-01T04:15:31.955Z,1.73
2023-04-01T04:16:31.762Z,1.72
2023-04-01T04:17:31.742Z,1.72
2023-04-01T04:18:31.672Z,1.72
2023-04-01T04:19:31.710Z,1.72
2023-04-01T04:20:31.664Z,1.72
2023-04-01T04:21:31.633Z,1.72
2023-04-01T04:22:31.629Z,1.69
2023-04-01T04:23:31.588Z,1.71
2023-04-01T04:24:31.602Z,1.69
2023-04-01T04:25:31.822Z,1.71
2023-04-01T04:26:31.550Z,1.70
2023-04-01T04:27:31.513Z,1.72
2023-04-01T04:28:31.532Z,1.69
2023-04-01T04:29:31.497Z,1.68
2023-04-01T04:30:31.507Z,1.68
2023-04-01T04:31:31.512Z,1.68
2023-04-01T04:32:31.540Z,1.68
2023-04-01T04:33:31.461Z,1.67
2023-04-01T04:34:31.440Z,1.65
2023-04-01T04:35:31.649Z,1.65
2023-04-01T04:36:31.437Z,1.65
2023-04-01T04:37:31.419Z,1.66
2023-04-01T04:38:31.352Z,1.66
2023-04-01T04:39:31.373Z,1.66
2023-04-01T04:40:31.376Z,1.65
2023-04-01T04:41:31.350Z,1.63
2023-04-01T04:42:31.315Z,1.65
2023-04-01T04:43:31.280Z,1.64
2023-04-01T04:44:31.309Z,1.62
2023-04-01T04:45:31.435Z,1.63
2023-04-01T04:46:31.324Z,1.63
2023-04-01T04:47:31.262Z,1.60
2023-04-01T04:48:31.247Z,1.61
2023-04-01T04:49:31.252Z,1.62
2023-04-01T04:50:31.234Z,1.62
2023-04-01T04:51:31.224Z,1.61
2023-04-01T04:52:31.247Z,1.60
2023-04-01T04:53:31.194Z,1.61
2023-04-01T04:54:31.177Z,1.60
2023-04-01T04:55:31.481Z,1.60
2023-04-01T04:56:31.180Z,1.58
2023-04-01T04:57:31.291Z,1.59
2023-04-01T04:58:31.163Z,1.59
2023-04-01T04:59:31.127Z,1.58
2023-04-01T05:00:31.105Z,1.59
2023-04-01T05:01:31.154Z,1.57
2023-04-01T05:02:31.151Z,1.57
2023-04-01T05:03:31.258Z,1.55
2023-04-01T05:04:31.100Z,1.57
2023-04-01T05:05:31.229Z,1.57
2023-04-01T05:06:31.029Z,1.55
2023-04-01T05:07:31.049Z,1.54
2023-04-01T05:08:31.030Z,1.55
2023-04-01T05:09:31.000Z,1.55
2023-04-01T05:10:30.996Z,1.54
2023-04-01T05:11:31.019Z,1.55
2023-04-01T05:12:30.974Z,1.54
2023-04-01T05:13:30.946Z,1.54
2023-04-01T05:14:30.959Z,1.52
2023-04-01T05:15:31.351Z,1.53
2023-04-01T05:16:31.012Z,1.53
2023-04-01T05:17:30.950Z,1.52
2023-04-01T05:18:30.881Z,1.52
2023-04-01T05:19:30.884Z,1.52
2023-04-01T05:20:30.845Z,1.50
2023-04-01T05:21:30.837Z,1.51
2023-04-01T05:22:30.834Z,1.50
2023-04-01T05:23:30.815Z,1.50
2023-04-01T05:24:30.876Z,1.50
2023-04-01T05:25:31.174Z,1.49
2023-04-01T05:26:30.847Z,1.50
2023-04-01T05:27:30.854Z,1.50
2023-04-01T05:28:30.847Z,1.50
2023-04-01T05:29:30.910Z,1.49
2023-04-01T05:30:30.878Z,1.48
2023-04-01T05:31:30.892Z,1.48
2023-04-01T05:32:30.897Z,1.49
2023-04-01T05:33:30.866Z,1.48
2023-04-01T05:34:30.889Z,1.48
2023-04-01T05:35:31.119Z,1.48
2023-04-01T05:36:30.888Z,1.47
2023-04-01T05:37:30.888Z,1.46
2023-04-01T05:38:30.888Z,1.46
2023-04-01T05:39:30.869Z,1.46
2023-04-01T05:40:30.922Z,1.47
2023-04-01T05:41:30.918Z,1.46
2023-04-01T05:42:30.897Z,1.46
2023-04-01T05:43:30.903Z,1.45
2023-04-01T05:44:30.974Z,1.46
2023-04-01T05:45:31.115Z,1.45
2023-04-01T05:46:30.938Z,1.45
2023-04-01T05:47:30.966Z,1.44
2023-04-01T05:48:30.911Z,1.43
2023-04-01T05:49:30.919Z,1.44
2023-04-01T05:50:30.929Z,1.44
2023-04-01T05:51:30.917Z,1.45
2023-04-01T05:52:30.911Z,1.45
2023-04-01T05:53:30.932Z,1.42
2023-04-01T05:54:30.953Z,1.43
2023-04-01T05:55:30.940Z,1.43
2023-04-01T05:56:30.917Z,1.43
2023-04-01T05:57:30.967Z,1.42
2023-04-01T05:58:30.918Z,1.41
2023-04-01T05:59:30.964Z,1.41
2023-04-01T06:00:30.923Z,1.41
2023-04-01T06:01:30.961Z,1.40
2023-04-01T06:02:31.004Z,1.40
2023-04-01T06:03:31.063Z,1.40
2023-04-01T06:04:31.032Z,1.39
2023-04-01T06:05:31.041Z,1.40
2023-04-01T06:06:30.999Z,1.41
2023-04-01T06:07:30.969Z,1.38
2023-04-01T06:08:30.988Z,1.40
2023-04-01T06:09:31.016Z,1.39
2023-04-01T06:10:31.001Z,1.38
2023-04-01T06:11:30.999Z,1.39
2023-04-01T06:12:31.000Z,1.38
2023-04-01T06:13:31.005Z,1.37
2023-04-01T06:14:30.995Z,1.38
2023-04-01T06:15:31.404Z,1.38
2023-04-01T06:16:31.088Z,1.37
2023-04-01T06:17:31.037Z,1.36
2023-04-01T06:18:31.028Z,1.36
2023-04-01T06:19:31.060Z,1.35
2023-04-01T06:20:31.033Z,1.34
2023-04-01T06:21:31.041Z,1.32
2023-04-01T06:22:31.814Z,1.35
2023-04-01T06:23:31.060Z,1.35
2023-04-01T06:24:31.049Z,1.34
2023-04-01T06:25:31.251Z,1.34
2023-04-01T06:26:31.072Z,1.35
2023-04-01T06:27:31.053Z,1.33
2023-04-01T06:28:31.069Z,1.33
2023-04-01T06:29:31.057Z,1.34
2023-04-01T06:30:31.075Z,1.33
2023-04-01T06:31:31.203Z,1.32
2023-04-01T06:32:31.073Z,1.32
2023-04-01T06:33:31.145Z,1.31
2023-04-01T06:34:31.072Z,1.32
2023-04-01T06:35:31.289Z,1.32
2023-04-01T06:36:31.106Z,1.32
2023-04-01T06:37:31.056Z,1.32
2023-04-01T06:38:31.025Z,1.30
2023-04-01T06:39:31.058Z,1.32
2023-04-01T06:40:31.074Z,1.31
2023-04-01T06:41:31.079Z,1.31
2023-04-01T06:42:31.056Z,1.30
2023-04-01T06:43:31.051Z,1.29
2023-04-01T06:44:31.044Z,1.29
2023-04-01T06:45:31.172Z,1.30
2023-04-01T06:46:31.083Z,1.27
2023-04-01T06:47:31.057Z,1.30
2023-04-01T06:48:31.048Z,1.29
2023-04-01T06:49:31.117Z,1.29
2023-04-01T06:50:31.067Z,1.27
2023-04-01T06:51:31.068Z,1.29
2023-04-01T06:52:31.041Z,1.28
2023-04-01T06:53:31.038Z,1.27
2023-04-01T06:54:31.063Z,1.28
2023-04-01T06:55:31.187Z,1.26
2023-04-01T06:56:31.062Z,1.28
2023-04-01T06:57:31.153Z,1.28
2023-04-01T06:58:31.082Z,1.26
2023-04-01T06:59:31.069Z,1.26
2023-04-01T07:00:31.087Z,1.26
2023-04-01T07:01:31.075Z,1.26
2023-04-01T07:02:31.103Z,1.25
2023-04-01T07:03:31.044Z,1.25
2023-04-01T07:04:31.072Z,1.25
2023-04-01T07:05:31.678Z,1.25
2023-04-01T07:06:31.044Z,1.25
2023-04-01T07:07:31.040Z,1.25
2023-04-01T07:08:31.061Z,1.22
2023-04-01T07:09:31.036Z,1.24
2023-04-01T07:10:31.080Z,1.21
2023-04-01T07:11:31.039Z,1.24
2023-04-01T07:12:31.046Z,1.24
2023-04-01T07:13:31.031Z,1.23
2023-04-01T07:14:31.027Z,1.23
2023-04-01T07:15:31.201Z,1.23
2023-04-01T07:16:31.048Z,1.23
2023-04-01T07:17:30.994Z,1.21
2023-04-01T07:18:30.983Z,1.21
2023-04-01T07:19:30.962Z,1.21
2023-04-01T07:20:30.964Z,1.21
2023-04-01T07:21:32.124Z,1.21
2023-04-01T07:22:31.049Z,1.21
2023-04-01T07:23:31.068Z,1.18
2023-04-01T07:24:31.030Z,1.19
2023-04-01T07:25:31.253Z,1.20
2023-04-01T07:26:31.048Z,1.19
2023-04-01T07:27:31.062Z,1.19
2023-04-01T07:28:31.056Z,1.19
2023-04-01T07:29:31.041Z,1.19
2023-04-01T07:30:31.068Z,1.20
2023-04-01T07:31:31.192Z,1.18
2023-04-01T07:32:31.076Z,1.19
2023-04-01T07:33:31.042Z,1.19
2023-04-01T07:34:31.010Z,1.17
2023-04-01T07:35:31.275Z,1.17
2023-04-01T07:36:30.989Z,1.17
2023-04-01T07:37:30.990Z,1.15
2023-04-01T07:38:31.013Z,1.13
2023-04-01T07:39:31.012Z,1.14
2023-04-01T07:40:30.985Z,1.16
2023-04-01T07:41:30.980Z,1.16
2023-04-01T07:42:30.967Z,1.16
2023-04-01T07:43:30.955Z,1.16
2023-04-01T07:44:30.954Z,1.15
2023-04-01T07:45:30.999Z,1.13
2023-04-01T07:46:30.991Z,1.13
2023-04-01T07:47:30.958Z,1.15
2023-04-01T07:48:30.896Z,1.16
2023-04-01T07:49:30.886Z,1.13
2023-04-01T07:50:30.900Z,1.13
2023-04-01T07:51:30.881Z,1.14
2023-04-01T07:52:30.847Z,1.12
2023-04-01T07:53:30.858Z,1.13
2023-04-01T07:54:30.876Z,1.13
2023-04-01T07:55:30.884Z,1.14
2023-04-01T07:56:30.854Z,1.12
2023-04-01T07:57:30.830Z,1.10
2023-04-01T07:58:30.837Z,1.10
2023-04-01T07:59:30.779Z,1.13
2023-04-01T08:00:30.809Z,1.11
2023-04-01T08:01:30.774Z,1.11
2023-04-01T08:02:30.824Z,1.09
2023-04-01T08:03:30.830Z,1.10
2023-04-01T08:04:30.841Z,1.09
2023-04-01T08:05:30.926Z,1.07
2023-04-01T08:06:30.742Z,1.09
2023-04-01T08:07:30.707Z,1.09
2023-04-01T08:08:30.676Z,1.09
2023-04-01T08:09:30.700Z,1.10
2023-04-01T08:10:30.680Z,1.08
2023-04-01T08:11:30.652Z,1.07
2023-04-01T08:12:30.651Z,1.06
2023-04-01T08:13:30.659Z,1.08
2023-04-01T08:14:30.656Z,1.09
2023-04-01T08:16:30.695Z,1.07
2023-04-01T08:17:30.638Z,1.06
2023-04-01T08:18:30.662Z,1.08
2023-04-01T08:19:30.620Z,1.08
2023-04-01T08:20:30.643Z,1.08
2023-04-01T08:21:30.666Z,1.07
2023-04-01T08:22:30.672Z,1.06
2023-04-01T08:23:30.690Z,1.07
2023-04-01T08:24:40.671Z,1.07
2023-04-01T08:25:31.894Z,1.07
2023-04-01T08:26:30.649Z,1.07
2023-04-01T08:27:30.617Z,1.07
2023-04-01T08:28:30.626Z,1.09
2023-04-01T08:29:30.594Z,1.07
2023-04-01T08:30:30.569Z,1.07
2023-04-01T08:31:30.613Z,1.08
2023-04-01T08:32:30.598Z,1.06
2023-04-01T08:33:30.522Z,1.08
2023-04-01T08:34:30.490Z,1.08
2023-04-01T08:35:32.198Z,1.06
2023-04-01T08:36:30.533Z,1.07
2023-04-01T08:37:30.551Z,1.07
2023-04-01T08:38:30.602Z,1.06
2023-04-01T08:39:30.596Z,1.07
2023-04-01T08:40:30.666Z,1.09
2023-04-01T08:41:30.640Z,1.04
2023-04-01T08:42:30.678Z,1.06
2023-04-01T08:43:30.718Z,1.09
2023-04-01T08:44:30.704Z,1.07
2023-04-01T08:45:30.876Z,1.06
2023-04-01T08:46:30.796Z,1.05
2023-04-01T08:47:30.848Z,1.05
2023-04-01T08:48:30.874Z,1.05
2023-04-01T08:49:30.907Z,1.02
2023-04-01T08:50:30.945Z,1.02
2023-04-01T08:51:30.993Z,1.03
2023-04-01T08:52:31.034Z,1.01
2023-04-01T08:53:31.062Z,1.03
2023-04-01T08:54:31.127Z,1.04
2023-04-01T08:55:31.613Z,1.02
2023-04-01T08:56:31.205Z,1.00
2023-04-01T08:57:31.288Z,1.02
2023-04-01T08:58:31.272Z,0.99
2023-04-01T08:59:31.333Z,0.99
2023-04-01T09:00:31.422Z,1.00
2023-04-01T09:01:31.431Z,1.00
2023-04-01T09:02:31.506Z,0.99
2023-04-01T09:03:31.557Z,0.97
2023-04-01T09:04:31.671Z,0.99
2023-04-01T09:05:31.978Z,0.98
2023-04-01T09:06:31.624Z,0.99
2023-04-01T09:07:31.693Z,0.98
2023-04-01T09:08:31.736Z,0.95
2023-04-01T09:09:31.735Z,0.94
2023-04-01T09:10:31.803Z,0.97
2023-04-01T09:11:31.882Z,0.95
2023-04-01T09:12:31.832Z,0.96
2023-04-01T09:13:31.868Z,0.95
2023-04-01T09:14:31.952Z,0.92
2023-04-01T09:15:32.149Z,0.92
2023-04-01T09:16:32.032Z,0.91
2023-04-01T09:17:32.022Z,0.91
2023-04-01T09:18:32.053Z,0.92
2023-04-01T09:19:32.076Z,0.92
2023-04-01T09:20:32.092Z,0.91
2023-04-01T09:21:32.167Z,0.91
2023-04-01T09:22:32.174Z,0.92
2023-04-01T09:23:32.174Z,0.91
2023-04-01T09:24:32.231Z,0.91
2023-04-01T09:25:32.381Z,0.91
2023-04-01T09:26:32.272Z,0.89
2023-04-01T09:27:32.308Z,0.90
2023-04-01T09:28:32.336Z,0.91
2023-04-01T09:29:32.335Z,0.91
2023-04-01T09:30:32.363Z,0.92
2023-04-01T09:31:32.462Z,0.91
2023-04-01T09:32:32.508Z,0.92
2023-04-01T09:33:32.428Z,0.90
2023-04-01T09:34:32.456Z,0.91
2023-04-01T09:35:32.774Z,0.89
2023-04-01T09:36:32.518Z,0.90
2023-04-01T09:37:32.601Z,0.89
2023-04-01T09:38:32.567Z,0.87
2023-04-01T09:39:32.578Z,0.89
2023-04-01T09:40:32.597Z,0.88
2023-04-01T09:41:32.649Z,0.86
2023-04-01T09:42:32.663Z,0.88
2023-04-01T09:43:32.686Z,0.87
2023-04-01T09:44:32.697Z,0.85
2023-04-01T09:45:32.921Z,0.86
2023-04-01T09:46:32.720Z,0.84
2023-04-01T09:47:32.823Z,0.85
2023-04-01T09:48:32.766Z,0.84
2023-04-01T09:49:32.770Z,0.84
2023-04-01T09:50:32.769Z,0.84
2023-04-01T09:51:32.799Z,0.84
2023-04-01T09:52:32.789Z,0.84
2023-04-01T09:53:32.775Z,0.85
2023-04-01T09:54:32.812Z,0.86
2023-04-01T09:55:32.965Z,0.85
2023-04-01T09:56:33.780Z,0.83
2023-04-01T09:57:32.876Z,0.84
2023-04-01T09:58:32.872Z,0.83
2023-04-01T09:59:32.881Z,0.83
2023-04-01T10:00:32.895Z,0.83
2023-04-01T10:01:32.911Z,0.82
2023-04-01T10:02:32.928Z,0.83
2023-04-01T10:03:32.881Z,0.83
2023-04-01T10:04:32.935Z,0.83
2023-04-01T10:05:33.096Z,0.82
2023-04-01T10:06:32.908Z,0.83
2023-04-01T10:07:32.911Z,0.83
2023-04-01T10:08:32.928Z,0.83
2023-04-01T10:09:32.942Z,0.82
2023-04-01T10:10:32.916Z,0.81
2023-04-01T10:11:32.956Z,0.83
2023-04-01T10:12:32.918Z,0.83
2023-04-01T10:13:32.908Z,0.82
2023-04-01T10:14:32.936Z,0.82
2023-04-01T10:15:33.136Z,0.83
2023-04-01T10:16:33.007Z,0.82
2023-04-01T10:17:32.962Z,0.82
2023-04-01T10:18:32.978Z,0.81
2023-04-01T10:19:33.000Z,0.82
2023-04-01T10:20:33.084Z,0.84
2023-04-01T10:21:32.995Z,0.84
2023-04-01T10:22:33.022Z,0.82
2023-04-01T10:23:32.982Z,0.81
2023-04-01T10:24:33.002Z,0.83
2023-04-01T10:25:33.175Z,0.81
2023-04-01T10:26:33.001Z,0.81
2023-04-01T10:27:33.010Z,0.82
2023-04-01T10:28:32.998Z,0.82
2023-04-01T10:29:32.986Z,0.83
2023-04-01T10:30:33.008Z,0.80
2023-04-01T10:31:32.997Z,0.81
2023-04-01T10:32:33.021Z,0.81
2023-04-01T10:33:32.997Z,0.80
2023-04-01T10:34:32.997Z,0.80
2023-04-01T10:35:33.170Z,0.81
2023-04-01T10:36:32.991Z,0.79
2023-04-01T10:37:32.972Z,0.81
2023-04-01T10:38:33.010Z,0.79
2023-04-01T10:39:33.024Z,0.81
2023-04-01T10:40:33.004Z,0.81
2023-04-01T10:41:32.998Z,0.80
2023-04-01T10:42:32.989Z,0.79
2023-04-01T10:43:32.959Z,0.79
2023-04-01T10:44:32.955Z,0.79
2023-04-01T10:45:33.296Z,0.79
2023-04-01T10:46:33.083Z,0.80
2023-04-01T10:47:33.019Z,0.79
2023-04-01T10:48:32.937Z,0.81
2023-04-01T10:49:32.934Z,0.80
2023-04-01T10:50:32.932Z,0.80
2023-04-01T10:51:32.962Z,0.80
2023-04-01T10:52:32.970Z,0.80
2023-04-01T10:53:32.885Z,0.79
2023-04-01T10:54:32.900Z,0.79
2023-04-01T10:55:33.260Z,0.79
2023-04-01T10:56:32.910Z,0.80
2023-04-01T10:57:32.966Z,0.80
2023-04-01T10:58:32.938Z,0.78
2023-04-01T10:59:32.889Z,0.79
2023-04-01T11:00:32.832Z,0.78
2023-04-01T11:01:32.954Z,0.77
2023-04-01T11:02:32.931Z,0.77
2023-04-01T11:03:32.933Z,0.79
2023-04-01T11:04:32.839Z,0.79
2023-04-01T11:05:32.959Z,0.79
2023-04-01T11:06:32.841Z,0.76
2023-04-01T11:07:32.799Z,0.77
2023-04-01T11:08:32.819Z,0.77
2023-04-01T11:09:32.801Z,0.78
2023-04-01T11:10:32.822Z,0.77
2023-04-01T11:11:32.789Z,0.79
2023-04-01T11:12:32.777Z,0.77
2023-04-01T11:13:32.793Z,0.77
2023-04-01T11:14:32.753Z,0.78
2023-04-01T11:15:33.063Z,0.79
2023-04-01T11:16:32.822Z,0.78
2023-04-01T11:17:32.778Z,0.77
2023-04-01T11:18:32.736Z,0.77
2023-04-01T11:19:32.710Z,0.76
2023-04-01T11:20:32.713Z,0.75
2023-04-01T11:21:32.707Z,0.75
2023-04-01T11:22:32.683Z,0.76
2023-04-01T11:23:32.659Z,0.76
2023-04-01T11:24:32.688Z,0.76
2023-04-01T11:25:32.790Z,0.75
2023-04-01T11:26:32.632Z,0.75
2023-04-01T11:27:32.642Z,0.75
2023-04-01T11:28:32.616Z,0.75
2023-04-01T11:29:32.574Z,0.76
2023-04-01T11:30:32.604Z,0.76
2023-04-01T11:31:32.581Z,0.76
2023-04-01T11:32:32.557Z,0.76
2023-04-01T11:33:32.564Z,0.75
2023-04-01T11:34:32.501Z,0.75
2023-04-01T11:35:32.773Z,0.76
2023-04-01T11:36:32.495Z,0.75
2023-04-01T11:37:32.488Z,0.76
2023-04-01T11:38:32.471Z,0.76
2023-04-01T11:39:32.460Z,0.76
2023-04-01T11:40:32.436Z,0.76
2023-04-01T11:41:32.442Z,0.75
2023-04-01T11:42:32.384Z,0.76
2023-04-01T11:43:33.791Z,0.75
2023-04-01T11:44:32.378Z,0.74
2023-04-01T11:45:32.599Z,0.74
2023-04-01T11:46:32.444Z,0.74
2023-04-01T11:47:32.320Z,0.74
2023-04-01T11:48:32.314Z,0.75
2023-04-01T11:49:32.280Z,0.75
2023-04-01T11:50:32.296Z,0.75
2023-04-01T11:51:32.247Z,0.75
2023-04-01T11:52:32.243Z,0.74
2023-04-01T11:53:32.198Z,0.74
2023-04-01T11:54:32.182Z,0.73
2023-04-01T11:55:32.551Z,0.74
2023-04-01T11:56:32.162Z,0.74
2023-04-01T11:57:32.263Z,0.74
2023-04-01T11:58:32.121Z,0.75
2023-04-01T11:59:32.080Z,0.74
2023-04-01T12:00:32.063Z,0.74
2023-04-01T12:01:32.053Z,0.74
2023-04-01T12:02:32.133Z,0.73
2023-04-01T12:03:32.095Z,0.73
2023-04-01T12:04:32.012Z,0.73
2023-04-01T12:05:32.339Z,0.73
2023-04-01T12:06:31.949Z,0.73
2023-04-01T12:07:31.927Z,0.71
2023-04-01T12:08:31.915Z,0.74
2023-04-01T12:09:31.901Z,0.74
2023-04-01T12:10:31.898Z,0.73
2023-04-01T12:11:31.871Z,0.73
2023-04-01T12:12:31.821Z,0.73
2023-04-01T12:13:31.802Z,0.73
2023-04-01T12:14:31.826Z,0.73
2023-04-01T12:15:31.989Z,0.72
2023-04-01T12:16:31.843Z,0.73
2023-04-01T12:17:31.774Z,0.71
2023-04-01T12:18:31.735Z,0.73
2023-04-01T12:19:31.739Z,0.72
2023-04-01T12:20:31.700Z,0.72
2023-04-01T12:21:31.715Z,0.73
2023-04-01T12:22:33.270Z,0.72
2023-04-01T12:23:31.695Z,0.72
2023-04-01T12:24:31.663Z,0.72
2023-04-01T12:25:31.887Z,0.72
2023-04-01T12:26:31.627Z,0.73
2023-04-01T12:27:31.588Z,0.73
2023-04-01T12:28:31.589Z,0.72
2023-04-01T12:29:31.561Z,0.72
2023-04-01T12:30:31.550Z,0.72
2023-04-01T12:31:31.589Z,0.72
2023-04-01T12:32:31.536Z,0.72
2023-04-01T12:33:31.504Z,0.73
2023-04-01T12:34:31.498Z,0.74
2023-04-01T12:35:31.554Z,0.71
2023-04-01T12:36:31.473Z,0.72
2023-04-01T12:37:31.437Z,0.72
2023-04-01T12:38:31.410Z,0.73
2023-04-01T12:39:31.381Z,0.73
2023-04-01T12:40:31.590Z,0.73
2023-04-01T12:41:31.355Z,0.73
2023-04-01T12:42:31.367Z,0.72
2023-04-01T12:43:31.320Z,0.74
2023-04-01T12:44:31.282Z,0.73
2023-04-01T12:45:31.521Z,0.72
2023-04-01T12:46:31.358Z,0.72
2023-04-01T12:47:31.301Z,0.72
2023-04-01T12:48:31.226Z,0.74
2023-04-01T12:49:31.196Z,0.73
2023-04-01T12:50:31.208Z,0.72
2023-04-01T12:51:31.171Z,0.72
2023-04-01T12:52:31.150Z,0.71
2023-04-01T12:53:31.104Z,0.73
2023-04-01T12:54:31.133Z,0.73
2023-04-01T12:55:31.239Z,0.73
2023-04-01T12:56:31.099Z,0.72
2023-04-01T12:57:31.198Z,0.72
2023-04-01T12:58:31.053Z,0.73
2023-04-01T12:59:31.025Z,0.74
2023-04-01T13:00:31.059Z,0.73
2023-04-01T13:01:31.037Z,0.73
2023-04-01T13:02:31.126Z,0.72
2023-04-01T13:03:31.051Z,0.73
2023-04-01T13:04:31.000Z,0.72
2023-04-01T13:05:31.314Z,0.73
2023-04-01T13:06:30.998Z,0.72
2023-04-01T13:07:30.959Z,0.73
2023-04-01T13:08:30.941Z,0.72
2023-04-01T13:09:30.938Z,0.73
2023-04-01T13:10:31.189Z,0.73
2023-04-01T13:11:30.930Z,0.74
2023-04-01T13:12:30.916Z,0.73
2023-04-01T13:13:30.885Z,0.74
2023-04-01T13:14:32.207Z,0.72
2023-04-01T13:15:30.861Z,0.72
2023-04-01T13:16:30.827Z,0.72
2023-04-01T13:17:30.823Z,0.72
2023-04-01T13:18:30.772Z,0.73
2023-04-01T13:19:30.761Z,0.73